sensor_id;sensor_type;location;lat;lon;timestamp;P1;durP1;ratioP1;P2;durP2;ratioP2
3939;SDS011;1984;48.312;9.244;2023-03-01T00:00:52;8.73;;;4.70;;
3939;SDS011;1984;48.312;9.244;2023-03-01T00:03:17;5.40;;;4.17;;
3939;SDS011;1984;48.312;9.244;2023-03-01T00:05:46;10.00;;;5.30;;
3939;SDS011;1984;48.312;9.244;2023-03-01T00:08:12;7.30;;;4.60;;
3939;SDS011;1984;48.312;9.244;2023-03-01T00:10:37;9.00;;;5.30;;
3939;SDS011;1984;48.312;9.244;2023-03-01T00:13:03;9.70;;;4.80;;
3939;SDS011;1984;48.312;9.244;2023-03-01T00:15:30;10.97;;;5.17;;
3939;SDS011;1984;48.312;9.244;2023-03-01T00:17:56;6.47;;;4.90;;
3939;SDS011;1984;48.312;9.244;2023-03-01T00:20:22;8.47;;;5.20;;
3939;SDS011;1984;48.312;9.244;2023-03-01T00:22:47;8.47;;;5.47;;
3939;SDS011;1984;48.312;9.244;2023-03-01T00:25:13;9.80;;;5.30;;
3939;SDS011;1984;48.312;9.244;2023-03-01T00:27:38;8.73;;;4.93;;
3939;SDS011;1984;48.312;9.244;2023-03-01T00:30:04;12.03;;;6.43;;
3939;SDS011;1984;48.312;9.244;2023-03-01T00:32:30;9.40;;;5.83;;
3939;SDS011;1984;48.312;9.244;2023-03-01T00:34:56;14.13;;;5.90;;
3939;SDS011;1984;48.312;9.244;2023-03-01T00:37:22;13.30;;;5.80;;
3939;SDS011;1984;48.312;9.244;2023-03-01T00:39:48;11.70;;;5.20;;
3939;SDS011;1984;48.312;9.244;2023-03-01T00:42:14;8.50;;;5.27;;
3939;SDS011;1984;48.312;9.244;2023-03-01T00:44:40;8.80;;;5.60;;
3939;SDS011;1984;48.312;9.244;2023-03-01T00:47:05;8.87;;;5.40;;
3939;SDS011;1984;48.312;9.244;2023-03-01T00:49:31;12.60;;;6.20;;
3939;SDS011;1984;48.312;9.244;2023-03-01T00:51:56;12.27;;;6.50;;
3939;SDS011;1984;48.312;9.244;2023-03-01T00:54:22;11.30;;;4.53;;
3939;SDS011;1984;48.312;9.244;2023-03-01T00:56:48;10.93;;;5.97;;
3939;SDS011;1984;48.312;9.244;2023-03-01T00:59:13;11.90;;;5.63;;
3939;SDS011;1984;48.312;9.244;2023-03-01T01:01:39;7.90;;;5.30;;
3939;SDS011;1984;48.312;9.244;2023-03-01T01:04:06;13.97;;;5.97;;
3939;SDS011;1984;48.312;9.244;2023-03-01T01:06:37;9.87;;;5.60;;
3939;SDS011;1984;48.312;9.244;2023-03-01T01:09:05;8.60;;;6.00;;
3939;SDS011;1984;48.312;9.244;2023-03-01T01:11:32;11.30;;;5.97;;
3939;SDS011;1984;48.312;9.244;2023-03-01T01:13:59;8.90;;;6.17;;
3939;SDS011;1984;48.312;9.244;2023-03-01T01:16:25;12.73;;;5.90;;
3939;SDS011;1984;48.312;9.244;2023-03-01T01:18:52;12.27;;;6.27;;
3939;SDS011;1984;48.312;9.244;2023-03-01T01:21:19;14.13;;;6.40;;
3939;SDS011;1984;48.312;9.244;2023-03-01T01:23:46;8.53;;;5.67;;
3939;SDS011;1984;48.312;9.244;2023-03-01T01:26:14;9.30;;;5.83;;
3939;SDS011;1984;48.312;9.244;2023-03-01T01:28:45;12.50;;;5.63;;
3939;SDS011;1984;48.312;9.244;2023-03-01T01:31:11;12.67;;;6.87;;
3939;SDS011;1984;48.312;9.244;2023-03-01T01:33:37;12.57;;;7.13;;
3939;SDS011;1984;48.312;9.244;2023-03-01T01:36:04;12.80;;;6.70;;
3939;SDS011;1984;48.312;9.244;2023-03-01T01:38:30;8.03;;;5.83;;
3939;SDS011;1984;48.312;9.244;2023-03-01T01:40:55;15.60;;;6.53;;
3939;SDS011;1984;48.312;9.244;2023-03-01T01:43:29;12.93;;;7.47;;
3939;SDS011;1984;48.312;9.244;2023-03-01T01:45:59;14.10;;;7.73;;
3939;SDS011;1984;48.312;9.244;2023-03-01T01:48:32;8.93;;;5.77;;
3939;SDS011;1984;48.312;9.244;2023-03-01T01:51:05;17.80;;;7.83;;
3939;SDS011;1984;48.312;9.244;2023-03-01T01:53:33;11.53;;;6.80;;
3939;SDS011;1984;48.312;9.244;2023-03-01T01:56:00;13.47;;;7.90;;
3939;SDS011;1984;48.312;9.244;2023-03-01T01:58:27;14.47;;;8.17;;
3939;SDS011;1984;48.312;9.244;2023-03-01T02:00:55;12.43;;;7.40;;
3939;SDS011;1984;48.312;9.244;2023-03-01T02:03:25;14.30;;;6.93;;
3939;SDS011;1984;48.312;9.244;2023-03-01T02:05:56;13.60;;;7.60;;
3939;SDS011;1984;48.312;9.244;2023-03-01T02:08:31;15.73;;;7.63;;
3939;SDS011;1984;48.312;9.244;2023-03-01T02:11:00;15.13;;;9.10;;
3939;SDS011;1984;48.312;9.244;2023-03-01T02:13:29;17.83;;;8.27;;
3939;SDS011;1984;48.312;9.244;2023-03-01T02:15:56;15.10;;;7.90;;
3939;SDS011;1984;48.312;9.244;2023-03-01T02:18:21;15.63;;;7.33;;
3939;SDS011;1984;48.312;9.244;2023-03-01T02:23:30;19.50;;;8.70;;
3939;SDS011;1984;48.312;9.244;2023-03-01T02:26:17;10.07;;;6.50;;
3939;SDS011;1984;48.312;9.244;2023-03-01T02:28:49;14.27;;;7.70;;
3939;SDS011;1984;48.312;9.244;2023-03-01T02:31:16;13.70;;;8.17;;
3939;SDS011;1984;48.312;9.244;2023-03-01T02:34:02;12.13;;;7.53;;
3939;SDS011;1984;48.312;9.244;2023-03-01T02:36:32;12.47;;;6.90;;
3939;SDS011;1984;48.312;9.244;2023-03-01T02:41:28;14.17;;;8.03;;
3939;SDS011;1984;48.312;9.244;2023-03-01T02:43:58;14.73;;;8.17;;
3939;SDS011;1984;48.312;9.244;2023-03-01T02:46:24;16.67;;;7.87;;
3939;SDS011;1984;48.312;9.244;2023-03-01T02:48:52;15.20;;;8.27;;
3939;SDS011;1984;48.312;9.244;2023-03-01T02:51:25;12.60;;;7.30;;
3939;SDS011;1984;48.312;9.244;2023-03-01T02:54:25;9.37;;;6.90;;
3939;SDS011;1984;48.312;9.244;2023-03-01T02:56:58;11.50;;;7.27;;
3939;SDS011;1984;48.312;9.244;2023-03-01T02:59:26;15.50;;;8.87;;
3939;SDS011;1984;48.312;9.244;2023-03-01T03:01:55;12.90;;;7.33;;
3939;SDS011;1984;48.312;9.244;2023-03-01T03:04:21;21.53;;;8.13;;
3939;SDS011;1984;48.312;9.244;2023-03-01T03:06:48;12.43;;;7.80;;
3939;SDS011;1984;48.312;9.244;2023-03-01T03:09:15;14.27;;;8.30;;
3939;SDS011;1984;48.312;9.244;2023-03-01T03:11:41;13.57;;;7.87;;
3939;SDS011;1984;48.312;9.244;2023-03-01T03:14:10;14.60;;;8.23;;
3939;SDS011;1984;48.312;9.244;2023-03-01T03:16:42;14.47;;;8.37;;
3939;SDS011;1984;48.312;9.244;2023-03-01T03:19:10;12.33;;;7.13;;
3939;SDS011;1984;48.312;9.244;2023-03-01T03:21:35;13.73;;;8.20;;
3939;SDS011;1984;48.312;9.244;2023-03-01T03:24:01;17.33;;;9.20;;
3939;SDS011;1984;48.312;9.244;2023-03-01T03:26:28;17.67;;;8.60;;
3939;SDS011;1984;48.312;9.244;2023-03-01T03:28:53;21.90;;;9.23;;
3939;SDS011;1984;48.312;9.244;2023-03-01T03:31:19;35.57;;;9.50;;
3939;SDS011;1984;48.312;9.244;2023-03-01T03:33:45;12.87;;;7.70;;
3939;SDS011;1984;48.312;9.244;2023-03-01T03:36:14;24.17;;;8.73;;
3939;SDS011;1984;48.312;9.244;2023-03-01T03:38:42;14.07;;;7.70;;
3939;SDS011;1984;48.312;9.244;2023-03-01T03:41:08;15.90;;;8.47;;
3939;SDS011;1984;48.312;9.244;2023-03-01T03:43:35;12.90;;;8.30;;
3939;SDS011;1984;48.312;9.244;2023-03-01T03:46:02;18.17;;;8.60;;
3939;SDS011;1984;48.312;9.244;2023-03-01T03:48:35;17.53;;;8.33;;
3939;SDS011;1984;48.312;9.244;2023-03-01T03:51:02;15.70;;;9.47;;
3939;SDS011;1984;48.312;9.244;2023-03-01T03:53:30;16.37;;;8.10;;
3939;SDS011;1984;48.312;9.244;2023-03-01T03:55:56;22.40;;;8.60;;
3939;SDS011;1984;48.312;9.244;2023-03-01T03:58:23;12.47;;;7.00;;
3939;SDS011;1984;48.312;9.244;2023-03-01T04:00:51;13.20;;;8.27;;
3939;SDS011;1984;48.312;9.244;2023-03-01T04:03:18;13.83;;;7.60;;
3939;SDS011;1984;48.312;9.244;2023-03-01T04:05:45;15.43;;;9.10;;
3939;SDS011;1984;48.312;9.244;2023-03-01T04:08:11;13.27;;;7.30;;
3939;SDS011;1984;48.312;9.244;2023-03-01T04:10:38;17.97;;;9.00;;
3939;SDS011;1984;48.312;9.244;2023-03-01T04:13:06;15.43;;;8.67;;
3939;SDS011;1984;48.312;9.244;2023-03-01T04:15:33;15.40;;;8.60;;
3939;SDS011;1984;48.312;9.244;2023-03-01T04:17:59;19.80;;;8.30;;
3939;SDS011;1984;48.312;9.244;2023-03-01T04:20:26;15.47;;;8.70;;
3939;SDS011;1984;48.312;9.244;2023-03-01T04:23:00;13.37;;;7.23;;
3939;SDS011;1984;48.312;9.244;2023-03-01T04:25:41;15.63;;;8.10;;
3939;SDS011;1984;48.312;9.244;2023-03-01T04:28:10;18.33;;;9.30;;
3939;SDS011;1984;48.312;9.244;2023-03-01T04:30:36;17.10;;;8.67;;
3939;SDS011;1984;48.312;9.244;2023-03-01T04:33:03;15.33;;;9.10;;
3939;SDS011;1984;48.312;9.244;2023-03-01T04:35:33;15.67;;;8.70;;
3939;SDS011;1984;48.312;9.244;2023-03-01T04:38:00;18.43;;;8.80;;
3939;SDS011;1984;48.312;9.244;2023-03-01T04:40:25;14.60;;;8.80;;
3939;SDS011;1984;48.312;9.244;2023-03-01T04:42:51;13.97;;;7.87;;
3939;SDS011;1984;48.312;9.244;2023-03-01T04:45:17;17.93;;;8.00;;
3939;SDS011;1984;48.312;9.244;2023-03-01T04:47:43;10.90;;;7.70;;
3939;SDS011;1984;48.312;9.244;2023-03-01T04:50:11;15.70;;;8.30;;
3939;SDS011;1984;48.312;9.244;2023-03-01T04:52:38;23.37;;;9.07;;
3939;SDS011;1984;48.312;9.244;2023-03-01T04:55:04;25.60;;;8.33;;
3939;SDS011;1984;48.312;9.244;2023-03-01T04:57:30;12.13;;;7.90;;
3939;SDS011;1984;48.312;9.244;2023-03-01T04:59:56;14.40;;;8.33;;
3939;SDS011;1984;48.312;9.244;2023-03-01T05:02:22;13.50;;;8.27;;
3939;SDS011;1984;48.312;9.244;2023-03-01T05:04:48;14.87;;;8.50;;
3939;SDS011;1984;48.312;9.244;2023-03-01T05:07:13;14.80;;;8.73;;
3939;SDS011;1984;48.312;9.244;2023-03-01T05:09:44;14.87;;;8.80;;
3939;SDS011;1984;48.312;9.244;2023-03-01T05:12:13;13.00;;;7.43;;
3939;SDS011;1984;48.312;9.244;2023-03-01T05:14:39;13.93;;;8.60;;
3939;SDS011;1984;48.312;9.244;2023-03-01T05:17:05;15.80;;;7.87;;
3939;SDS011;1984;48.312;9.244;2023-03-01T05:19:31;16.13;;;7.97;;
3939;SDS011;1984;48.312;9.244;2023-03-01T05:21:57;15.43;;;9.00;;
3939;SDS011;1984;48.312;9.244;2023-03-01T05:24:26;15.50;;;7.90;;
3939;SDS011;1984;48.312;9.244;2023-03-01T05:26:53;15.27;;;9.00;;
3939;SDS011;1984;48.312;9.244;2023-03-01T05:29:19;15.37;;;8.03;;
3939;SDS011;1984;48.312;9.244;2023-03-01T05:31:55;15.53;;;8.90;;
3939;SDS011;1984;48.312;9.244;2023-03-01T05:34:32;18.40;;;8.47;;
3939;SDS011;1984;48.312;9.244;2023-03-01T05:37:00;16.73;;;7.47;;
3939;SDS011;1984;48.312;9.244;2023-03-01T05:39:26;19.57;;;10.10;;
3939;SDS011;1984;48.312;9.244;2023-03-01T05:41:53;13.60;;;8.37;;
3939;SDS011;1984;48.312;9.244;2023-03-01T05:44:20;16.27;;;8.60;;
3939;SDS011;1984;48.312;9.244;2023-03-01T05:46:46;16.90;;;8.93;;
3939;SDS011;1984;48.312;9.244;2023-03-01T05:49:12;19.57;;;9.57;;
3939;SDS011;1984;48.312;9.244;2023-03-01T05:51:38;15.00;;;8.23;;
3939;SDS011;1984;48.312;9.244;2023-03-01T05:54:08;14.70;;;8.03;;
3939;SDS011;1984;48.312;9.244;2023-03-01T05:56:34;12.80;;;8.13;;
3939;SDS011;1984;48.312;9.244;2023-03-01T05:59:01;14.83;;;8.70;;
3939;SDS011;1984;48.312;9.244;2023-03-01T06:01:27;18.30;;;10.37;;
3939;SDS011;1984;48.312;9.244;2023-03-01T06:03:54;17.27;;;9.57;;
3939;SDS011;1984;48.312;9.244;2023-03-01T06:06:20;12.93;;;7.37;;
3939;SDS011;1984;48.312;9.244;2023-03-01T06:08:46;12.30;;;7.90;;
3939;SDS011;1984;48.312;9.244;2023-03-01T06:11:11;15.53;;;8.80;;
3939;SDS011;1984;48.312;9.244;2023-03-01T06:13:37;16.43;;;8.67;;
3939;SDS011;1984;48.312;9.244;2023-03-01T06:16:06;17.17;;;8.43;;
3939;SDS011;1984;48.312;9.244;2023-03-01T06:18:32;14.73;;;9.10;;
3939;SDS011;1984;48.312;9.244;2023-03-01T06:20:57;12.90;;;8.07;;
3939;SDS011;1984;48.312;9.244;2023-03-01T06:23:23;17.10;;;9.20;;
3939;SDS011;1984;48.312;9.244;2023-03-01T06:25:49;17.23;;;8.47;;
3939;SDS011;1984;48.312;9.244;2023-03-01T06:28:14;17.40;;;8.90;;
3939;SDS011;1984;48.312;9.244;2023-03-01T06:30:40;13.13;;;7.20;;
3939;SDS011;1984;48.312;9.244;2023-03-01T06:33:06;14.73;;;8.23;;
3939;SDS011;1984;48.312;9.244;2023-03-01T06:35:31;15.93;;;8.43;;
3939;SDS011;1984;48.312;9.244;2023-03-01T06:37:58;11.30;;;6.80;;
3939;SDS011;1984;48.312;9.244;2023-03-01T06:40:25;17.53;;;7.97;;
3939;SDS011;1984;48.312;9.244;2023-03-01T06:42:51;12.53;;;7.63;;
3939;SDS011;1984;48.312;9.244;2023-03-01T06:45:19;14.60;;;7.90;;
3939;SDS011;1984;48.312;9.244;2023-03-01T06:47:45;15.93;;;7.03;;
3939;SDS011;1984;48.312;9.244;2023-03-01T06:50:12;13.50;;;8.10;;
3939;SDS011;1984;48.312;9.244;2023-03-01T06:52:39;17.23;;;8.77;;
3939;SDS011;1984;48.312;9.244;2023-03-01T06:55:05;15.50;;;9.17;;
3939;SDS011;1984;48.312;9.244;2023-03-01T06:57:32;17.87;;;7.77;;
3939;SDS011;1984;48.312;9.244;2023-03-01T06:59:58;15.30;;;8.57;;
3939;SDS011;1984;48.312;9.244;2023-03-01T07:02:23;10.63;;;6.70;;
3939;SDS011;1984;48.312;9.244;2023-03-01T07:04:49;20.80;;;10.70;;
3939;SDS011;1984;48.312;9.244;2023-03-01T07:07:16;30.70;;;12.40;;
3939;SDS011;1984;48.312;9.244;2023-03-01T07:09:43;13.73;;;8.33;;
3939;SDS011;1984;48.312;9.244;2023-03-01T07:12:09;14.60;;;6.87;;
3939;SDS011;1984;48.312;9.244;2023-03-01T07:14:34;17.10;;;9.00;;
3939;SDS011;1984;48.312;9.244;2023-03-01T07:17:00;15.73;;;8.40;;
3939;SDS011;1984;48.312;9.244;2023-03-01T07:19:25;34.57;;;7.43;;
3939;SDS011;1984;48.312;9.244;2023-03-01T07:21:51;15.23;;;8.17;;
3939;SDS011;1984;48.312;9.244;2023-03-01T07:24:16;16.17;;;9.50;;
3939;SDS011;1984;48.312;9.244;2023-03-01T07:26:42;15.03;;;6.43;;
3939;SDS011;1984;48.312;9.244;2023-03-01T07:29:09;13.50;;;7.17;;
3939;SDS011;1984;48.312;9.244;2023-03-01T07:31:35;16.60;;;9.50;;
3939;SDS011;1984;48.312;9.244;2023-03-01T07:34:01;16.43;;;8.47;;
3939;SDS011;1984;48.312;9.244;2023-03-01T07:36:27;15.90;;;9.03;;
3939;SDS011;1984;48.312;9.244;2023-03-01T07:38:53;16.90;;;8.60;;
3939;SDS011;1984;48.312;9.244;2023-03-01T07:41:20;10.67;;;7.40;;
3939;SDS011;1984;48.312;9.244;2023-03-01T07:43:46;18.37;;;8.93;;
3939;SDS011;1984;48.312;9.244;2023-03-01T07:46:12;15.13;;;8.00;;
3939;SDS011;1984;48.312;9.244;2023-03-01T07:48:37;14.90;;;8.43;;
3939;SDS011;1984;48.312;9.244;2023-03-01T07:51:04;15.53;;;8.43;;
3939;SDS011;1984;48.312;9.244;2023-03-01T07:53:31;15.40;;;8.27;;
3939;SDS011;1984;48.312;9.244;2023-03-01T07:56:11;18.53;;;9.50;;
3939;SDS011;1984;48.312;9.244;2023-03-01T07:58:38;14.97;;;8.03;;
3939;SDS011;1984;48.312;9.244;2023-03-01T08:01:07;15.40;;;8.73;;
3939;SDS011;1984;48.312;9.244;2023-03-01T08:03:34;17.97;;;8.70;;
3939;SDS011;1984;48.312;9.244;2023-03-01T08:06:00;17.70;;;8.70;;
3939;SDS011;1984;48.312;9.244;2023-03-01T08:08:27;14.33;;;8.70;;
3939;SDS011;1984;48.312;9.244;2023-03-01T08:10:56;9.07;;;4.23;;
3939;SDS011;1984;48.312;9.244;2023-03-01T08:13:22;21.23;;;10.33;;
3939;SDS011;1984;48.312;9.244;2023-03-01T08:15:50;13.27;;;7.00;;
3939;SDS011;1984;48.312;9.244;2023-03-01T08:18:17;14.63;;;8.87;;
3939;SDS011;1984;48.312;9.244;2023-03-01T08:20:43;19.33;;;9.10;;
3939;SDS011;1984;48.312;9.244;2023-03-01T08:23:09;17.50;;;10.03;;
3939;SDS011;1984;48.312;9.244;2023-03-01T08:25:35;23.40;;;8.80;;
3939;SDS011;1984;48.312;9.244;2023-03-01T08:28:01;15.77;;;9.70;;
3939;SDS011;1984;48.312;9.244;2023-03-01T08:30:26;20.63;;;9.27;;
3939;SDS011;1984;48.312;9.244;2023-03-01T08:32:52;12.30;;;8.43;;
3939;SDS011;1984;48.312;9.244;2023-03-01T08:35:17;22.73;;;9.57;;
3939;SDS011;1984;48.312;9.244;2023-03-01T08:37:44;19.20;;;8.23;;
3939;SDS011;1984;48.312;9.244;2023-03-01T08:40:09;11.40;;;6.03;;
3939;SDS011;1984;48.312;9.244;2023-03-01T08:42:36;18.43;;;8.27;;
3939;SDS011;1984;48.312;9.244;2023-03-01T08:45:02;16.20;;;9.30;;
3939;SDS011;1984;48.312;9.244;2023-03-01T08:47:28;14.10;;;8.77;;
3939;SDS011;1984;48.312;9.244;2023-03-01T08:49:54;18.40;;;9.53;;
3939;SDS011;1984;48.312;9.244;2023-03-01T08:52:20;15.80;;;9.07;;
3939;SDS011;1984;48.312;9.244;2023-03-01T08:54:48;20.10;;;10.43;;
3939;SDS011;1984;48.312;9.244;2023-03-01T08:57:14;20.23;;;9.90;;
3939;SDS011;1984;48.312;9.244;2023-03-01T08:59:40;14.30;;;8.63;;
3939;SDS011;1984;48.312;9.244;2023-03-01T09:02:10;22.87;;;10.47;;
3939;SDS011;1984;48.312;9.244;2023-03-01T09:04:38;21.30;;;8.80;;
3939;SDS011;1984;48.312;9.244;2023-03-01T09:07:04;19.40;;;8.93;;
3939;SDS011;1984;48.312;9.244;2023-03-01T09:09:29;16.00;;;9.50;;
3939;SDS011;1984;48.312;9.244;2023-03-01T09:11:55;17.27;;;8.90;;
3939;SDS011;1984;48.312;9.244;2023-03-01T09:14:21;17.20;;;9.20;;
3939;SDS011;1984;48.312;9.244;2023-03-01T09:16:46;18.07;;;8.57;;
3939;SDS011;1984;48.312;9.244;2023-03-01T09:19:12;18.07;;;9.90;;
3939;SDS011;1984;48.312;9.244;2023-03-01T09:21:38;14.43;;;8.97;;
3939;SDS011;1984;48.312;9.244;2023-03-01T09:24:03;20.27;;;9.27;;
3939;SDS011;1984;48.312;9.244;2023-03-01T09:26:29;16.93;;;8.63;;
3939;SDS011;1984;48.312;9.244;2023-03-01T09:28:55;16.20;;;8.50;;
3939;SDS011;1984;48.312;9.244;2023-03-01T09:31:22;11.20;;;4.80;;
3939;SDS011;1984;48.312;9.244;2023-03-01T09:33:50;17.27;;;9.30;;
3939;SDS011;1984;48.312;9.244;2023-03-01T09:36:21;13.30;;;7.07;;
3939;SDS011;1984;48.312;9.244;2023-03-01T09:38:49;18.00;;;8.30;;
3939;SDS011;1984;48.312;9.244;2023-03-01T09:41:22;10.57;;;5.90;;
3939;SDS011;1984;48.312;9.244;2023-03-01T09:46:44;16.23;;;5.07;;
3939;SDS011;1984;48.312;9.244;2023-03-01T09:49:18;18.73;;;8.03;;
3939;SDS011;1984;48.312;9.244;2023-03-01T09:51:57;14.30;;;8.13;;
3939;SDS011;1984;48.312;9.244;2023-03-01T09:54:44;19.03;;;9.50;;
3939;SDS011;1984;48.312;9.244;2023-03-01T09:57:16;15.40;;;8.10;;
3939;SDS011;1984;48.312;9.244;2023-03-01T09:59:48;10.37;;;6.10;;
3939;SDS011;1984;48.312;9.244;2023-03-01T10:02:32;13.20;;;6.90;;
3939;SDS011;1984;48.312;9.244;2023-03-01T10:05:14;12.97;;;7.10;;
3939;SDS011;1984;48.312;9.244;2023-03-01T10:10:40;17.90;;;8.13;;
3939;SDS011;1984;48.312;9.244;2023-03-01T10:13:17;14.83;;;7.90;;
3939;SDS011;1984;48.312;9.244;2023-03-01T10:15:49;10.67;;;6.20;;
3939;SDS011;1984;48.312;9.244;2023-03-01T10:18:20;13.63;;;7.83;;
3939;SDS011;1984;48.312;9.244;2023-03-01T10:20:59;17.40;;;8.10;;
3939;SDS011;1984;48.312;9.244;2023-03-01T10:23:26;13.87;;;8.53;;
3939;SDS011;1984;48.312;9.244;2023-03-01T10:31:16;21.17;;;9.20;;
3939;SDS011;1984;48.312;9.244;2023-03-01T10:33:45;15.20;;;8.90;;
3939;SDS011;1984;48.312;9.244;2023-03-01T10:36:12;13.83;;;7.90;;
3939;SDS011;1984;48.312;9.244;2023-03-01T10:38:52;15.70;;;8.77;;
3939;SDS011;1984;48.312;9.244;2023-03-01T10:41:19;15.47;;;8.33;;
3939;SDS011;1984;48.312;9.244;2023-03-01T10:43:50;17.50;;;7.90;;
3939;SDS011;1984;48.312;9.244;2023-03-01T10:51:42;20.00;;;8.60;;
3939;SDS011;1984;48.312;9.244;2023-03-01T10:54:23;18.53;;;8.43;;
3939;SDS011;1984;48.312;9.244;2023-03-01T10:56:54;22.30;;;9.30;;
3939;SDS011;1984;48.312;9.244;2023-03-01T10:59:34;14.17;;;7.13;;
3939;SDS011;1984;48.312;9.244;2023-03-01T11:02:03;21.73;;;8.90;;
3939;SDS011;1984;48.312;9.244;2023-03-01T11:04:57;16.87;;;7.77;;
3939;SDS011;1984;48.312;9.244;2023-03-01T11:07:38;19.40;;;9.37;;
3939;SDS011;1984;48.312;9.244;2023-03-01T11:10:23;13.37;;;7.20;;
3939;SDS011;1984;48.312;9.244;2023-03-01T11:12:53;16.87;;;8.60;;
3939;SDS011;1984;48.312;9.244;2023-03-01T11:15:32;19.63;;;10.03;;
3939;SDS011;1984;48.312;9.244;2023-03-01T11:17:57;17.10;;;9.60;;
3939;SDS011;1984;48.312;9.244;2023-03-01T11:23:12;17.97;;;10.20;;
3939;SDS011;1984;48.312;9.244;2023-03-01T11:25:43;16.60;;;10.40;;
3939;SDS011;1984;48.312;9.244;2023-03-01T11:28:17;18.23;;;10.37;;
3939;SDS011;1984;48.312;9.244;2023-03-01T11:33:17;16.77;;;10.37;;
3939;SDS011;1984;48.312;9.244;2023-03-01T11:36:05;18.33;;;10.50;;
3939;SDS011;1984;48.312;9.244;2023-03-01T11:38:32;20.30;;;10.43;;
3939;SDS011;1984;48.312;9.244;2023-03-01T11:49:01;15.87;;;10.43;;
3939;SDS011;1984;48.312;9.244;2023-03-01T11:51:45;18.20;;;9.87;;
3939;SDS011;1984;48.312;9.244;2023-03-01T11:54:24;20.20;;;10.50;;
3939;SDS011;1984;48.312;9.244;2023-03-01T11:57:08;18.50;;;10.80;;
3939;SDS011;1984;48.312;9.244;2023-03-01T12:02:40;20.17;;;10.80;;
3939;SDS011;1984;48.312;9.244;2023-03-01T12:05:34;18.33;;;10.40;;
3939;SDS011;1984;48.312;9.244;2023-03-01T12:19:03;13.83;;;8.30;;
3939;SDS011;1984;48.312;9.244;2023-03-01T12:21:38;20.57;;;9.90;;
3939;SDS011;1984;48.312;9.244;2023-03-01T12:24:28;21.33;;;10.20;;
3939;SDS011;1984;48.312;9.244;2023-03-01T12:29:52;17.27;;;10.13;;
3939;SDS011;1984;48.312;9.244;2023-03-01T12:49:41;21.07;;;10.80;;
3939;SDS011;1984;48.312;9.244;2023-03-01T12:52:16;20.53;;;10.73;;
3939;SDS011;1984;48.312;9.244;2023-03-01T12:54:47;16.80;;;9.93;;
3939;SDS011;1984;48.312;9.244;2023-03-01T12:57:30;24.43;;;11.50;;
3939;SDS011;1984;48.312;9.244;2023-03-01T13:00:27;17.83;;;10.63;;
3939;SDS011;1984;48.312;9.244;2023-03-01T13:03:05;19.43;;;11.40;;
3939;SDS011;1984;48.312;9.244;2023-03-01T13:06:15;15.63;;;8.97;;
3939;SDS011;1984;48.312;9.244;2023-03-01T13:08:47;14.33;;;7.90;;
3939;SDS011;1984;48.312;9.244;2023-03-01T13:11:20;20.50;;;11.07;;
3939;SDS011;1984;48.312;9.244;2023-03-01T13:13:47;18.70;;;9.97;;
3939;SDS011;1984;48.312;9.244;2023-03-01T13:16:21;18.03;;;10.37;;
3939;SDS011;1984;48.312;9.244;2023-03-01T13:19:13;21.30;;;11.80;;
3939;SDS011;1984;48.312;9.244;2023-03-01T13:21:45;17.27;;;9.83;;
3939;SDS011;1984;48.312;9.244;2023-03-01T13:29:47;16.97;;;10.93;;
3939;SDS011;1984;48.312;9.244;2023-03-01T13:32:21;16.20;;;10.10;;
3939;SDS011;1984;48.312;9.244;2023-03-01T13:34:49;15.27;;;9.43;;
3939;SDS011;1984;48.312;9.244;2023-03-01T13:37:26;22.10;;;10.77;;
3939;SDS011;1984;48.312;9.244;2023-03-01T13:39:57;17.73;;;10.20;;
3939;SDS011;1984;48.312;9.244;2023-03-01T13:44:57;17.97;;;10.43;;
3939;SDS011;1984;48.312;9.244;2023-03-01T13:47:24;16.57;;;9.93;;
3939;SDS011;1984;48.312;9.244;2023-03-01T13:50:00;20.60;;;8.87;;
3939;SDS011;1984;48.312;9.244;2023-03-01T13:52:35;18.07;;;9.33;;
3939;SDS011;1984;48.312;9.244;2023-03-01T13:55:10;18.77;;;10.00;;
3939;SDS011;1984;48.312;9.244;2023-03-01T13:57:39;18.03;;;10.40;;
3939;SDS011;1984;48.312;9.244;2023-03-01T14:00:24;20.23;;;10.80;;
3939;SDS011;1984;48.312;9.244;2023-03-01T14:05:35;21.97;;;9.97;;
3939;SDS011;1984;48.312;9.244;2023-03-01T14:08:02;20.03;;;10.10;;
3939;SDS011;1984;48.312;9.244;2023-03-01T14:10:44;17.53;;;8.93;;
3939;SDS011;1984;48.312;9.244;2023-03-01T14:21:37;12.40;;;8.80;;
3939;SDS011;1984;48.312;9.244;2023-03-01T14:24:03;14.63;;;9.00;;
3939;SDS011;1984;48.312;9.244;2023-03-01T14:26:28;17.63;;;6.47;;
3939;SDS011;1984;48.312;9.244;2023-03-01T14:28:56;15.60;;;9.63;;
3939;SDS011;1984;48.312;9.244;2023-03-01T14:33:59;19.90;;;10.33;;
3939;SDS011;1984;48.312;9.244;2023-03-01T14:36:29;17.93;;;10.43;;
3939;SDS011;1984;48.312;9.244;2023-03-01T14:38:56;20.73;;;10.13;;
3939;SDS011;1984;48.312;9.244;2023-03-01T14:41:29;25.30;;;10.40;;
3939;SDS011;1984;48.312;9.244;2023-03-01T14:44:05;16.93;;;8.70;;
3939;SDS011;1984;48.312;9.244;2023-03-01T14:46:38;16.87;;;10.27;;
3939;SDS011;1984;48.312;9.244;2023-03-01T14:51:39;20.43;;;10.60;;
3939;SDS011;1984;48.312;9.244;2023-03-01T14:56:53;16.10;;;9.73;;
3939;SDS011;1984;48.312;9.244;2023-03-01T14:59:23;18.27;;;8.67;;
3939;SDS011;1984;48.312;9.244;2023-03-01T15:01:50;52.43;;;20.47;;
3939;SDS011;1984;48.312;9.244;2023-03-01T15:04:18;19.27;;;10.47;;
3939;SDS011;1984;48.312;9.244;2023-03-01T15:06:44;15.93;;;9.93;;
3939;SDS011;1984;48.312;9.244;2023-03-01T15:09:14;20.20;;;10.50;;
3939;SDS011;1984;48.312;9.244;2023-03-01T15:11:41;19.10;;;10.03;;
3939;SDS011;1984;48.312;9.244;2023-03-01T15:17:03;15.50;;;8.50;;
3939;SDS011;1984;48.312;9.244;2023-03-01T15:19:29;17.33;;;9.10;;
3939;SDS011;1984;48.312;9.244;2023-03-01T15:21:54;14.67;;;9.10;;
3939;SDS011;1984;48.312;9.244;2023-03-01T15:24:23;15.30;;;8.43;;
3939;SDS011;1984;48.312;9.244;2023-03-01T15:29:21;16.27;;;8.77;;
3939;SDS011;1984;48.312;9.244;2023-03-01T15:31:58;13.30;;;8.63;;
3939;SDS011;1984;48.312;9.244;2023-03-01T15:36:57;16.47;;;9.27;;
3939;SDS011;1984;48.312;9.244;2023-03-01T15:39:41;15.67;;;8.97;;
3939;SDS011;1984;48.312;9.244;2023-03-01T15:42:12;10.40;;;7.70;;
3939;SDS011;1984;48.312;9.244;2023-03-01T15:47:46;18.30;;;9.70;;
3939;SDS011;1984;48.312;9.244;2023-03-01T15:50:35;18.80;;;11.33;;
3939;SDS011;1984;48.312;9.244;2023-03-01T15:53:01;20.73;;;9.33;;
3939;SDS011;1984;48.312;9.244;2023-03-01T15:55:31;15.27;;;9.20;;
3939;SDS011;1984;48.312;9.244;2023-03-01T15:58:14;15.57;;;10.30;;
3939;SDS011;1984;48.312;9.244;2023-03-01T16:00:42;14.60;;;9.60;;
3939;SDS011;1984;48.312;9.244;2023-03-01T16:03:10;25.30;;;14.27;;
3939;SDS011;1984;48.312;9.244;2023-03-01T16:05:36;22.17;;;11.60;;
3939;SDS011;1984;48.312;9.244;2023-03-01T16:08:03;32.97;;;17.10;;
3939;SDS011;1984;48.312;9.244;2023-03-01T16:10:33;24.07;;;12.53;;
3939;SDS011;1984;48.312;9.244;2023-03-01T16:12:59;21.23;;;10.53;;
3939;SDS011;1984;48.312;9.244;2023-03-01T16:15:26;17.50;;;9.67;;
3939;SDS011;1984;48.312;9.244;2023-03-01T16:17:53;17.63;;;10.37;;
3939;SDS011;1984;48.312;9.244;2023-03-01T16:20:19;17.83;;;9.80;;
3939;SDS011;1984;48.312;9.244;2023-03-01T16:22:45;18.80;;;10.37;;
3939;SDS011;1984;48.312;9.244;2023-03-01T16:25:12;22.10;;;11.90;;
3939;SDS011;1984;48.312;9.244;2023-03-01T16:27:43;16.60;;;9.50;;
3939;SDS011;1984;48.312;9.244;2023-03-01T16:30:11;21.77;;;11.20;;
3939;SDS011;1984;48.312;9.244;2023-03-01T16:32:41;17.50;;;10.70;;
3939;SDS011;1984;48.312;9.244;2023-03-01T16:35:09;16.53;;;9.97;;
3939;SDS011;1984;48.312;9.244;2023-03-01T16:37:36;16.13;;;10.00;;
3939;SDS011;1984;48.312;9.244;2023-03-01T16:40:02;22.13;;;11.50;;
3939;SDS011;1984;48.312;9.244;2023-03-01T16:42:33;38.63;;;17.77;;
3939;SDS011;1984;48.312;9.244;2023-03-01T16:44:59;21.67;;;10.80;;
3939;SDS011;1984;48.312;9.244;2023-03-01T16:47:26;24.47;;;10.47;;
3939;SDS011;1984;48.312;9.244;2023-03-01T16:49:52;26.67;;;15.03;;
3939;SDS011;1984;48.312;9.244;2023-03-01T16:52:19;23.67;;;13.43;;
3939;SDS011;1984;48.312;9.244;2023-03-01T16:54:45;34.10;;;17.93;;
3939;SDS011;1984;48.312;9.244;2023-03-01T16:57:11;30.20;;;14.00;;
3939;SDS011;1984;48.312;9.244;2023-03-01T16:59:36;23.60;;;12.00;;